Search for airport 
image banner adimage banner adimage banner ad
image banner ad

1L3 - Searchlight

Located in Searchlight, United States

ICAO - 1L3, IATA -

Data provided by Airmate  

General information

Coordinates: N35°26'40" W114°54'34"
Elevation is 3413 feet MSL.
Magnetic variation is 14° East
View others Airports in Nevada

Operational data

Special qualification required
Current time UTC:
Current local time:
Weather at : KIFP - Laughlin/Bullhead Intl ( 45 km )
METAR: KIFP 092150Z 20008KT 10SM SKC 35/M11 A2970
TAF: KIFP 091725Z 0918/1018 36017G25KT P6SM SKC FM092000 24008KT P6SM SKC FM092200 19014G23KT P6SM SKC FM100400 16010KT P6SM SKC
View NOTAMs / SUP AIP / TFR affecting this airport [VIEW]
Communications frequencies: [VIEW]

Runways:

RWY identifierQFULength (ft)Width (ft)SurfaceLDA (ft)
16176°504070ASPH
34356°504070ASPH

Airport contact information

Address: Searchlight United States

Satellite view of 1L3